createdAt,value
2018-11-23T00:00:50.600Z,57.59
2018-11-23T00:03:19.028Z,59.88
2018-11-23T00:05:53.000Z,59.02
2018-11-23T00:08:21.351Z,58.33
2018-11-23T00:10:49.678Z,57.69
2018-11-23T00:13:18.036Z,58.13
2018-11-23T00:15:46.641Z,58.04
2018-11-23T00:18:14.996Z,59.29
2018-11-23T00:20:43.436Z,59.54
2018-11-23T00:23:11.968Z,58.98
2018-11-23T00:25:40.394Z,59.48
2018-11-23T00:28:08.832Z,59.55
2018-11-23T00:30:37.365Z,60.77
2018-11-23T00:33:05.856Z,59.69
2018-11-23T00:35:34.271Z,58.33
2018-11-23T00:38:02.731Z,57.46
2018-11-23T00:40:32.091Z,58.71
2018-11-23T00:43:00.908Z,58.32
2018-11-23T00:45:29.415Z,58.01
2018-11-23T00:47:58.709Z,58.37
2018-11-23T00:50:27.375Z,59.49
2018-11-23T00:52:56.889Z,60.05
2018-11-23T00:55:26.139Z,59.96
2018-11-23T00:57:54.662Z,63.42
2018-11-23T01:00:26.085Z,59.71
2018-11-23T01:02:55.051Z,59.05
2018-11-23T01:05:23.773Z,59.68
2018-11-23T01:07:52.268Z,60.04
2018-11-23T01:10:21.827Z,60.97
2018-11-23T01:12:51.235Z,58.56
2018-11-23T01:15:19.671Z,58.95
2018-11-23T01:17:48.098Z,58.58
2018-11-23T01:20:17.938Z,57.64
2018-11-23T01:22:46.685Z,58.73
2018-11-23T01:25:15.971Z,57.33
2018-11-23T01:27:45.383Z,58.32
2018-11-23T01:30:16.242Z,60.20
2018-11-23T01:32:44.796Z,59.84
2018-11-23T01:35:13.620Z,59.44
2018-11-23T01:37:42.490Z,59.85
2018-11-23T01:40:14.101Z,58.94
2018-11-23T01:42:42.594Z,58.08
2018-11-23T01:45:11.608Z,57.67
2018-11-23T01:47:40.128Z,57.66
2018-11-23T01:50:11.423Z,57.79
2018-11-23T01:52:39.940Z,57.72
2018-11-23T01:55:09.469Z,58.59
2018-11-23T01:57:38.580Z,57.41
2018-11-23T02:00:08.336Z,58.16
2018-11-23T02:02:36.823Z,58.18
2018-11-23T02:05:05.544Z,58.08
2018-11-23T02:07:33.949Z,57.44
2018-11-23T02:10:02.365Z,57.19
2018-11-23T02:12:30.767Z,57.39
2018-11-23T02:14:59.156Z,58.37
2018-11-23T02:17:27.583Z,57.72
2018-11-23T02:19:57.192Z,57.37
2018-11-23T02:22:26.406Z,57.85
2018-11-23T02:24:54.836Z,57.23
2018-11-23T02:27:23.648Z,56.96
2018-11-23T02:29:52.051Z,57.39
2018-11-23T02:32:20.489Z,57.80
2018-11-23T02:34:48.929Z,57.64
2018-11-23T02:37:17.384Z,58.08
2018-11-23T02:39:45.809Z,57.89
2018-11-23T02:42:14.271Z,57.60
2018-11-23T02:44:42.669Z,56.75
2018-11-23T02:47:11.054Z,57.58
2018-11-23T02:49:39.491Z,57.27
2018-11-23T02:52:08.075Z,57.60
2018-11-23T02:54:36.535Z,58.04
2018-11-23T02:57:05.568Z,56.71
2018-11-23T02:59:33.986Z,56.79
2018-11-23T03:02:02.452Z,57.36
2018-11-23T03:04:30.845Z,56.84
2018-11-23T03:06:59.308Z,56.91
2018-11-23T03:09:27.712Z,56.87
2018-11-23T03:11:56.178Z,57.22
2018-11-23T03:14:24.555Z,57.52
2018-11-23T03:16:52.955Z,58.55
2018-11-23T03:19:21.396Z,57.65
2018-11-23T03:21:49.832Z,57.50
2018-11-23T03:24:18.257Z,57.37
2018-11-23T03:26:46.721Z,56.96
2018-11-23T03:29:15.166Z,56.86
2018-11-23T03:31:43.636Z,58.35
2018-11-23T03:34:12.086Z,57.46
2018-11-23T03:36:40.511Z,57.49
2018-11-23T03:39:09.475Z,57.16
2018-11-23T03:41:37.887Z,57.25
2018-11-23T03:44:06.340Z,57.97
2018-11-23T03:46:34.835Z,58.56
2018-11-23T03:49:03.400Z,57.90
2018-11-23T03:51:31.888Z,57.62
2018-11-23T03:54:01.029Z,57.77
2018-11-23T03:56:29.531Z,58.07
2018-11-23T03:58:58.066Z,58.23
2018-11-23T04:01:26.486Z,58.33
2018-11-23T04:03:54.945Z,59.64
2018-11-23T04:06:23.373Z,58.71
2018-11-23T04:08:52.160Z,57.94
2018-11-23T04:11:20.747Z,57.99
2018-11-23T04:13:49.161Z,57.39
2018-11-23T04:16:17.613Z,57.51
2018-11-23T04:18:46.055Z,57.38
2018-11-23T04:21:14.518Z,58.53
2018-11-23T04:23:42.931Z,58.37
2018-11-23T04:28:43.703Z,56.97
2018-11-23T04:31:13.235Z,57.39
2018-11-23T04:33:41.660Z,57.86
2018-11-23T04:36:10.177Z,58.91
2018-11-23T04:38:38.697Z,58.17
2018-11-23T04:41:07.131Z,57.71
2018-11-23T04:43:35.597Z,57.31
2018-11-23T04:46:04.007Z,57.53
2018-11-23T04:48:32.639Z,57.29
2018-11-23T04:51:01.161Z,57.14
2018-11-23T04:53:29.601Z,57.96
2018-11-23T04:55:57.998Z,57.78
2018-11-23T04:58:26.499Z,58.26
2018-11-23T05:00:54.949Z,60.08
2018-11-23T05:03:23.364Z,58.40
2018-11-23T05:05:51.747Z,57.79
2018-11-23T05:08:20.204Z,59.22
2018-11-23T05:10:48.659Z,58.52
2018-11-23T05:13:17.140Z,58.65
2018-11-23T05:15:45.643Z,57.88
2018-11-23T05:18:14.107Z,57.51
2018-11-23T05:20:42.560Z,57.26
2018-11-23T05:23:11.008Z,57.74
2018-11-23T05:25:39.459Z,57.89
2018-11-23T05:28:07.835Z,57.83
2018-11-23T05:30:36.260Z,58.27
2018-11-23T05:33:10.878Z,57.92
2018-11-23T05:35:39.269Z,57.78
2018-11-23T05:38:07.734Z,59.97
2018-11-23T05:40:36.215Z,58.82
2018-11-23T05:43:04.939Z,58.18
2018-11-23T05:45:33.409Z,57.98
2018-11-23T05:48:01.836Z,57.57
2018-11-23T05:50:30.308Z,57.47
2018-11-23T05:52:58.757Z,57.24
2018-11-23T05:55:27.339Z,57.27
2018-11-23T05:57:55.785Z,57.74
2018-11-23T06:00:26.605Z,57.74
2018-11-23T06:02:55.089Z,57.50
2018-11-23T06:05:23.551Z,57.49
2018-11-23T06:07:51.999Z,57.93
2018-11-23T06:10:21.010Z,56.88
2018-11-23T06:12:49.443Z,57.27
2018-11-23T06:15:19.545Z,57.27
2018-11-23T06:17:48.577Z,59.02
2018-11-23T06:20:19.093Z,58.71
2018-11-23T06:22:48.571Z,57.75
2018-11-23T06:25:22.228Z,58.88
2018-11-23T06:27:50.728Z,57.68
2018-11-23T06:33:12.137Z,59.39
2018-11-23T06:35:40.464Z,58.23
2018-11-23T06:38:08.808Z,58.02
2018-11-23T06:40:37.141Z,58.12
2018-11-23T06:43:05.840Z,58.43
2018-11-23T06:45:37.750Z,59.14
2018-11-23T06:48:06.849Z,59.54
2018-11-23T06:50:35.352Z,59.45
2018-11-23T06:53:03.704Z,59.57
2018-11-23T06:55:32.045Z,59.59
2018-11-23T06:58:00.415Z,59.78
2018-11-23T07:00:28.741Z,59.03
2018-11-23T07:02:59.238Z,60.37
2018-11-23T07:05:25.479Z,59.75
2018-11-23T07:07:53.855Z,59.04
2018-11-23T07:10:23.171Z,59.29
2018-11-23T07:12:51.511Z,59.16
2018-11-23T07:15:20.371Z,59.60
2018-11-23T07:17:48.728Z,58.95
2018-11-23T07:20:17.116Z,61.04
2018-11-23T07:22:45.475Z,59.13
2018-11-23T07:25:14.517Z,59.72
2018-11-23T07:27:43.340Z,59.38
2018-11-23T07:30:14.665Z,59.58
2018-11-23T07:32:43.290Z,59.40
2018-11-23T07:35:11.919Z,60.45
2018-11-23T07:37:40.393Z,59.16
2018-11-23T07:40:20.996Z,58.76
2018-11-23T07:42:49.472Z,58.82
2018-11-23T07:45:17.912Z,59.85
2018-11-23T07:47:46.335Z,58.73
2018-11-23T07:50:14.804Z,59.35
2018-11-23T07:52:43.237Z,58.97
2018-11-23T07:55:12.521Z,59.44
2018-11-23T07:57:41.222Z,58.90
2018-11-23T08:00:15.527Z,58.79
2018-11-23T08:02:44.616Z,59.28
2018-11-23T08:05:14.329Z,59.89
2018-11-23T08:07:42.770Z,62.16
2018-11-23T08:10:11.330Z,59.38
2018-11-23T08:12:40.920Z,58.84
2018-11-23T08:15:11.353Z,58.81
2018-11-23T08:17:40.087Z,59.25
2018-11-23T08:20:09.744Z,60.71
2018-11-23T08:22:38.212Z,59.01
2018-11-23T08:25:07.379Z,58.63
2018-11-23T08:27:35.899Z,58.06
2018-11-23T08:30:05.318Z,58.72
2018-11-23T08:32:33.817Z,58.66
2018-11-23T08:35:02.246Z,60.51
2018-11-23T08:37:30.748Z,58.45
2018-11-23T08:39:59.179Z,58.74
2018-11-23T08:42:27.629Z,58.77
2018-11-23T08:44:56.271Z,57.46
2018-11-23T08:47:24.773Z,58.36
2018-11-23T08:49:53.160Z,57.80
2018-11-23T08:52:21.719Z,54.95
2018-11-23T08:54:50.163Z,55.48
2018-11-23T08:57:18.617Z,53.68
2018-11-23T08:59:47.179Z,51.25
2018-11-23T09:02:15.647Z,50.40
2018-11-23T09:04:44.121Z,50.43
2018-11-23T09:07:12.541Z,51.42
2018-11-23T09:09:41.008Z,51.41
2018-11-23T09:12:09.522Z,51.22
2018-11-23T09:14:37.938Z,50.25
2018-11-23T09:17:06.439Z,47.43
2018-11-23T09:19:34.892Z,44.34
2018-11-23T09:22:03.351Z,41.69
2018-11-23T09:24:31.888Z,41.04
2018-11-23T09:27:00.344Z,39.51
2018-11-23T09:29:28.809Z,41.15
2018-11-23T09:31:57.383Z,40.13
2018-11-23T09:34:25.853Z,37.48
2018-11-23T09:36:54.315Z,39.91
2018-11-23T09:39:22.792Z,38.62
2018-11-23T09:41:51.262Z,35.16
2018-11-23T09:44:19.784Z,34.54
2018-11-23T09:46:48.291Z,34.24
2018-11-23T09:49:16.743Z,33.92
2018-11-23T09:51:45.154Z,33.09
2018-11-23T09:54:13.599Z,33.82
2018-11-23T09:56:42.007Z,33.36
2018-11-23T09:59:10.438Z,32.00
2018-11-23T10:01:38.890Z,32.61
2018-11-23T10:04:07.360Z,32.65
2018-11-23T10:06:35.775Z,34.68
2018-11-23T10:09:04.567Z,36.89
2018-11-23T10:11:33.052Z,35.17
2018-11-23T10:14:01.473Z,36.70
2018-11-23T10:16:29.867Z,36.70
2018-11-23T10:18:58.335Z,36.00
2018-11-23T10:21:26.856Z,37.66
2018-11-23T10:24:01.673Z,37.30
2018-11-23T10:26:30.143Z,37.33
2018-11-23T10:28:58.636Z,35.00
2018-11-23T10:31:27.187Z,35.14
2018-11-23T10:33:55.686Z,35.42
2018-11-23T10:36:24.107Z,35.84
2018-11-23T10:38:52.556Z,36.36
2018-11-23T10:41:20.977Z,38.26
2018-11-23T10:43:49.430Z,39.24
2018-11-23T10:46:17.923Z,41.29
2018-11-23T10:48:46.506Z,39.81
2018-11-23T10:51:15.011Z,41.84
2018-11-23T10:53:43.475Z,44.91
2018-11-23T10:56:11.939Z,44.75
2018-11-23T10:58:40.433Z,46.79
2018-11-23T11:01:14.223Z,46.31
2018-11-23T11:03:47.788Z,48.33
2018-11-23T11:06:21.403Z,48.42
2018-11-23T11:08:49.869Z,48.28
2018-11-23T11:11:18.443Z,47.92
2018-11-23T11:13:46.845Z,48.91
2018-11-23T11:16:15.294Z,50.30
2018-11-23T11:18:43.734Z,51.28
2018-11-23T11:21:12.119Z,50.61
2018-11-23T11:23:40.494Z,49.61
2018-11-23T11:26:08.904Z,50.77
2018-11-23T11:28:37.346Z,49.68
2018-11-23T11:31:06.228Z,50.37
2018-11-23T11:33:34.754Z,50.93
2018-11-23T11:36:03.203Z,50.99
2018-11-23T11:38:31.687Z,49.44
2018-11-23T11:41:00.146Z,49.11
2018-11-23T11:43:28.541Z,49.70
2018-11-23T11:45:56.965Z,50.04
2018-11-23T11:48:25.384Z,48.48
2018-11-23T11:50:53.742Z,47.47
2018-11-23T11:53:22.163Z,46.80
2018-11-23T11:55:50.582Z,45.27
2018-11-23T11:58:19.083Z,43.84
2018-11-23T12:00:47.634Z,41.42
2018-11-23T12:03:16.991Z,38.22
2018-11-23T12:05:46.282Z,38.50
2018-11-23T12:08:14.771Z,37.15
2018-11-23T12:10:43.231Z,35.89
2018-11-23T12:13:11.690Z,33.68
2018-11-23T12:15:40.135Z,31.38
2018-11-23T12:18:08.580Z,29.68
2018-11-23T12:20:36.996Z,29.97
2018-11-23T12:23:05.797Z,30.28
2018-11-23T12:25:34.262Z,31.50
2018-11-23T12:28:02.713Z,32.20
2018-11-23T12:30:31.237Z,33.25
2018-11-23T12:33:00.559Z,30.62
2018-11-23T12:35:28.986Z,29.61
2018-11-23T12:40:43.269Z,31.07
2018-11-23T12:43:11.724Z,32.13
2018-11-23T12:45:40.139Z,32.84
2018-11-23T12:48:08.619Z,32.36
2018-11-23T12:50:37.056Z,33.85
2018-11-23T12:53:06.529Z,30.75
2018-11-23T12:55:34.067Z,30.58
2018-11-23T12:58:02.543Z,28.81
2018-11-23T13:00:31.125Z,30.04
2018-11-23T13:03:00.865Z,29.90
2018-11-23T13:05:30.151Z,31.96
2018-11-23T13:07:59.909Z,32.17
2018-11-23T13:10:28.664Z,31.10
2018-11-23T13:12:57.695Z,32.85
2018-11-23T13:15:26.262Z,31.99
2018-11-23T13:17:55.122Z,33.12
2018-11-23T13:20:23.636Z,33.53
2018-11-23T13:22:52.104Z,32.82
2018-11-23T13:25:21.979Z,31.02
2018-11-23T13:27:50.506Z,33.81
2018-11-23T13:30:20.986Z,34.61
2018-11-23T13:32:49.431Z,37.16
2018-11-23T13:35:18.584Z,38.24
2018-11-23T13:37:47.017Z,40.25
2018-11-23T13:40:17.684Z,40.96
2018-11-23T13:42:46.484Z,41.27
2018-11-23T13:45:16.336Z,41.76
2018-11-23T13:47:44.781Z,42.58
2018-11-23T13:50:14.710Z,43.50
2018-11-23T13:52:44.252Z,43.99
2018-11-23T13:55:12.713Z,43.99
2018-11-23T13:57:41.157Z,44.38
2018-11-23T14:00:15.120Z,44.05
2018-11-23T14:02:43.880Z,47.12
2018-11-23T14:05:14.100Z,46.69
2018-11-23T14:07:43.320Z,46.86
2018-11-23T14:10:13.564Z,51.00
2018-11-23T14:12:42.381Z,50.23
2018-11-23T14:15:14.341Z,51.49
2018-11-23T14:17:43.565Z,50.76
2018-11-23T14:20:13.243Z,51.13
2018-11-23T14:22:41.675Z,51.07
2018-11-23T14:25:12.069Z,52.50
2018-11-23T14:27:40.727Z,52.53
2018-11-23T14:30:12.348Z,52.96
2018-11-23T14:32:40.857Z,53.39
2018-11-23T14:35:11.728Z,55.54
2018-11-23T14:37:40.485Z,54.63
2018-11-23T14:40:09.610Z,53.39
2018-11-23T14:42:38.531Z,55.64
2018-11-23T14:45:09.883Z,58.28
2018-11-23T14:47:38.337Z,56.79
2018-11-23T14:50:09.857Z,54.61
2018-11-23T14:52:38.388Z,53.04
2018-11-23T14:55:08.100Z,53.88
2018-11-23T14:57:36.812Z,54.83
2018-11-23T15:00:09.865Z,56.57
2018-11-23T15:02:38.336Z,57.24
2018-11-23T15:05:07.179Z,57.92
2018-11-23T15:07:36.488Z,59.09
2018-11-23T15:10:07.313Z,57.94
2018-11-23T15:12:35.740Z,58.39
2018-11-23T15:15:04.312Z,58.20
2018-11-23T15:17:32.740Z,56.56
2018-11-23T15:20:01.237Z,56.03
2018-11-23T15:22:29.680Z,56.22
2018-11-23T15:24:58.071Z,56.66
2018-11-23T15:27:26.500Z,57.16
2018-11-23T15:29:54.984Z,57.32
2018-11-23T15:32:23.417Z,58.67
2018-11-23T15:34:51.900Z,59.52
2018-11-23T15:37:20.357Z,60.15
2018-11-23T15:39:48.763Z,58.07
2018-11-23T15:42:17.217Z,57.51
2018-11-23T15:44:45.657Z,56.63
2018-11-23T15:47:14.088Z,57.31
2018-11-23T15:49:42.638Z,59.39
2018-11-23T15:52:11.077Z,58.61
2018-11-23T15:54:39.540Z,59.00
2018-11-23T15:57:08.051Z,58.13
2018-11-23T15:59:36.726Z,59.07
2018-11-23T16:02:05.483Z,60.63
2018-11-23T16:04:39.456Z,59.01
2018-11-23T16:07:02.420Z,59.80
2018-11-23T16:09:31.657Z,61.14
2018-11-23T16:12:00.126Z,60.44
2018-11-23T16:14:28.575Z,60.96
2018-11-23T16:16:57.047Z,62.16
2018-11-23T16:19:25.530Z,61.62
2018-11-23T16:21:53.980Z,60.20
2018-11-23T16:24:22.402Z,59.31
2018-11-23T16:26:50.928Z,59.70
2018-11-23T16:29:19.348Z,58.98
2018-11-23T16:31:47.875Z,58.31
2018-11-23T16:34:16.255Z,59.57
2018-11-23T16:36:44.704Z,60.14
2018-11-23T16:39:13.588Z,59.35
2018-11-23T16:41:42.004Z,58.97
2018-11-23T16:44:10.428Z,58.95
2018-11-23T16:46:38.847Z,58.82
2018-11-23T16:49:07.264Z,58.35
2018-11-23T16:51:35.623Z,58.70
2018-11-23T16:54:04.051Z,58.41
2018-11-23T16:56:32.450Z,58.44
2018-11-23T16:59:00.848Z,58.65
2018-11-23T17:01:29.297Z,59.47
2018-11-23T17:03:59.631Z,58.67
2018-11-23T17:06:28.068Z,58.76
2018-11-23T17:08:56.472Z,58.42
2018-11-23T17:11:24.940Z,57.63
2018-11-23T17:13:53.964Z,59.15
2018-11-23T17:16:22.411Z,58.48
2018-11-23T17:18:50.833Z,60.36
2018-11-23T17:21:19.268Z,59.49
2018-11-23T17:23:47.736Z,58.96
2018-11-23T17:26:16.171Z,61.51
2018-11-23T17:28:44.588Z,60.31
2018-11-23T17:31:13.004Z,61.86
2018-11-23T17:33:41.435Z,62.09
2018-11-23T17:36:09.901Z,61.08
2018-11-23T17:38:46.788Z,60.91
2018-11-23T17:41:06.795Z,60.17
2018-11-23T17:43:35.253Z,60.27
2018-11-23T17:46:03.726Z,59.30
2018-11-23T17:48:32.215Z,59.71
2018-11-23T17:51:00.651Z,60.33
2018-11-23T17:53:29.071Z,59.52
2018-11-23T17:55:57.512Z,59.23
2018-11-23T17:58:25.970Z,59.16
2018-11-23T18:00:55.312Z,59.09
2018-11-23T18:03:23.731Z,59.59
2018-11-23T18:05:52.140Z,59.43
2018-11-23T18:08:20.544Z,59.66
2018-11-23T18:10:49.057Z,59.84
2018-11-23T18:13:17.527Z,62.32
2018-11-23T18:15:45.944Z,60.72
2018-11-23T18:18:14.426Z,60.87
2018-11-23T18:20:42.858Z,61.36
2018-11-23T18:23:11.292Z,63.11
2018-11-23T18:25:40.700Z,62.80
2018-11-23T18:28:09.127Z,63.89
2018-11-23T18:30:37.637Z,63.60
2018-11-23T18:33:07.354Z,62.81
2018-11-23T18:35:35.814Z,61.64
2018-11-23T18:38:04.320Z,63.16
2018-11-23T18:40:37.283Z,64.67
2018-11-23T18:43:01.191Z,60.90
2018-11-23T18:45:29.623Z,60.87
2018-11-23T18:47:58.008Z,60.01
2018-11-23T18:50:26.427Z,59.77
2018-11-23T18:52:54.864Z,59.39
2018-11-23T18:55:23.335Z,59.28
2018-11-23T18:57:51.781Z,59.04
2018-11-23T19:00:20.312Z,59.42
2018-11-23T19:02:48.781Z,59.24
2018-11-23T19:05:19.346Z,58.99
2018-11-23T19:07:47.792Z,60.07
2018-11-23T19:10:16.317Z,59.84
2018-11-23T19:12:44.822Z,59.52
2018-11-23T19:15:15.542Z,59.13
2018-11-23T19:17:44.032Z,59.79
2018-11-23T19:20:17.341Z,59.18
2018-11-23T19:22:46.748Z,59.59
2018-11-23T19:25:15.198Z,60.59
2018-11-23T19:27:43.627Z,60.31
2018-11-23T19:30:14.166Z,58.85
2018-11-23T19:32:42.599Z,58.87
2018-11-23T19:35:11.045Z,59.79
2018-11-23T19:37:39.535Z,59.57
2018-11-23T19:40:13.723Z,59.19
2018-11-23T19:42:42.295Z,60.49
2018-11-23T19:45:11.828Z,59.58
2018-11-23T19:47:40.227Z,59.34
2018-11-23T19:50:11.129Z,58.85
2018-11-23T19:52:39.831Z,59.27
2018-11-23T19:55:08.705Z,58.75
2018-11-23T19:57:37.126Z,59.31
2018-11-23T20:00:10.403Z,59.30
2018-11-23T20:02:38.797Z,58.83
2018-11-23T20:05:07.183Z,60.19
2018-11-23T20:07:35.609Z,59.46
2018-11-23T20:10:04.392Z,60.06
2018-11-23T20:12:32.805Z,59.20
2018-11-23T20:15:01.337Z,59.06
2018-11-23T20:17:29.857Z,59.25
2018-11-23T20:19:58.272Z,59.78
2018-11-23T20:22:26.730Z,59.38
2018-11-23T20:24:55.180Z,60.33
2018-11-23T20:27:23.584Z,60.09
2018-11-23T20:29:52.069Z,58.90
2018-11-23T20:32:20.478Z,58.29
2018-11-23T20:34:48.917Z,59.02
2018-11-23T20:37:17.336Z,58.86
2018-11-23T20:39:45.748Z,60.36
2018-11-23T20:42:14.176Z,59.48
2018-11-23T20:44:42.596Z,58.97
2018-11-23T20:47:11.017Z,58.64
2018-11-23T20:49:45.725Z,59.95
2018-11-23T20:52:07.909Z,59.08
2018-11-23T20:54:36.357Z,59.41
2018-11-23T20:57:04.814Z,58.24
2018-11-23T20:59:38.668Z,57.50
2018-11-23T21:02:01.792Z,58.11
2018-11-23T21:04:30.199Z,58.26
2018-11-23T21:06:58.619Z,59.02
2018-11-23T21:09:31.163Z,59.85
2018-11-23T21:11:55.527Z,59.98
2018-11-23T21:14:23.936Z,59.00
2018-11-23T21:16:52.367Z,60.50
2018-11-23T21:19:20.881Z,59.33
2018-11-23T21:21:49.309Z,58.24
2018-11-23T21:24:17.730Z,58.83
2018-11-23T21:26:46.156Z,59.53
2018-11-23T21:29:14.608Z,58.88
2018-11-23T21:31:43.010Z,59.19
2018-11-23T21:34:11.530Z,59.13
2018-11-23T21:36:39.972Z,58.65
2018-11-23T21:39:13.740Z,59.08
2018-11-23T21:41:38.643Z,59.38
2018-11-23T21:44:07.107Z,59.06
2018-11-23T21:46:35.564Z,59.24
2018-11-23T21:49:04.011Z,59.00
2018-11-23T21:51:32.483Z,59.42
2018-11-23T21:54:00.925Z,58.81
2018-11-23T21:56:29.332Z,58.59
2018-11-23T21:58:57.749Z,57.87
2018-11-23T22:01:26.179Z,58.03
2018-11-23T22:03:54.646Z,60.12
2018-11-23T22:06:23.067Z,59.73
2018-11-23T22:08:51.485Z,59.10
2018-11-23T22:11:20.622Z,58.52
2018-11-23T22:13:49.052Z,58.66
2018-11-23T22:16:17.587Z,58.86
2018-11-23T22:18:46.037Z,58.78
2018-11-23T22:21:14.476Z,58.65
2018-11-23T22:23:42.929Z,58.32
2018-11-23T22:26:11.394Z,58.25
2018-11-23T22:28:39.890Z,58.46
2018-11-23T22:31:08.415Z,59.64
2018-11-23T22:33:37.827Z,59.01
2018-11-23T22:36:06.262Z,58.36
2018-11-23T22:38:34.638Z,59.00
2018-11-23T22:41:03.070Z,59.13
2018-11-23T22:43:31.449Z,59.93
2018-11-23T22:45:59.836Z,58.49
2018-11-23T22:48:28.240Z,58.69
2018-11-23T22:50:56.634Z,59.15
2018-11-23T22:53:25.145Z,58.87
2018-11-23T22:55:53.488Z,58.77
2018-11-23T22:58:22.025Z,58.89
2018-11-23T23:01:02.546Z,59.47
2018-11-23T23:03:31.289Z,58.89
2018-11-23T23:06:00.141Z,58.75
2018-11-23T23:08:28.138Z,58.36
2018-11-23T23:10:56.459Z,58.35
2018-11-23T23:13:24.812Z,58.09
2018-11-23T23:15:53.294Z,58.54
2018-11-23T23:18:21.723Z,57.79
2018-11-23T23:20:50.154Z,58.10
2018-11-23T23:23:18.576Z,58.27
2018-11-23T23:25:47.020Z,58.30
2018-11-23T23:28:15.545Z,58.65
2018-11-23T23:30:43.975Z,58.74
2018-11-23T23:33:12.479Z,58.62
2018-11-23T23:35:40.912Z,58.70
2018-11-23T23:38:09.240Z,58.56
2018-11-23T23:40:37.616Z,58.92
2018-11-23T23:43:05.936Z,58.89
2018-11-23T23:45:34.380Z,59.01
2018-11-23T23:48:02.707Z,58.99
2018-11-23T23:50:31.041Z,59.08
2018-11-23T23:52:59.337Z,58.42
2018-11-23T23:55:27.635Z,58.69
2018-11-23T23:57:55.929Z,61.06
